Etusivu
METAR-TAF:

METAR-TAF

Lentoasemat :

Orange_County_Airport

Orange, Texas, Yhdysvallat

Leveyspiiri: 30-04-09N, Pituuspiiri: 093-48-13W, korkeus merenpinnasta: 4 m

Tämänhetkinen sää

Tämä raportti tehtiin 21 minuuttia sitten, kello 10.55 UTC
tyyntä
Lämpötila 15°C
Kosteus 94%
Ilmanpaine 1018 hPa
Näkyvyys: 0.4 km
Pilvistä 300 ft:n korkeudessa
sumua

METAR: KORG 061055Z AUTO 00000KT 1/4SM FG OVC003 15/14 A3005 RMK AO2 T01460138

Aika: 05:16 (11:16 UTC)


TAF: puuttuu

Säähavainnot ja -ennusteet yli 4000 lentoasemalta (METAR- ja TAF-raportit).

Käytössä olevat sääasemat on merkitty karttaan keltaisilla ja punaisilla pisteillä.

Aseta hiiri pisteen päälle nähdäksesi sääaseman nimen.

Klikkaa sitten nähdäksesi säähavainnot ja -ennusteet.

Kartan vaihtaminen: klikkaa mustalla rastilla varustettuja vihreitä pisteitä, niin voit zoomata sisään; viivalla varustettua vihreää pistettä, niin voit zoomata ulos tai vihreitä nuolia, niin pääset viereisille kartoille.


METAR-TAF: